Time;durP1;ratioP1;P1;durP2;ratioP2;P2;SDS_P1;SDS_P2;PMS_P1;PMS_P2;Temp;Humidity;BMP_temperature;BMP_pressure;BME280_temperature;BME280_humidity;BME280_pressure;Samples;Min_cycle;Max_cycle;Signal;HPM_P1;HPM_P2
2022/08/16 00:02:04;;;;;;;8.75;6.97;;;;;;;21.77;100.00;98591.06;1649182;85;20916;-72
2022/08/16 00:04:31;;;;;;;15.63;6.60;;;;;;;21.76;100.00;98599.84;1647260;84;20984;-72
2022/08/16 00:06:58;;;;;;;15.00;6.83;;;;;;;21.76;100.00;98599.84;1648072;84;20896;-72
2022/08/16 00:09:25;;;;;;;10.38;6.58;;;;;;;21.77;100.00;98600.63;1640795;84;21156;-74
2022/08/16 00:11:51;;;;;;;11.50;6.67;;;;;;;21.94;100.00;98609.05;1618176;85;21046;-74
2022/08/16 00:14:23;;;;;;;14.98;6.80;;;;;;;21.94;100.00;98609.05;1635689;84;21087;-74
2022/08/16 00:16:49;;;;;;;15.98;6.80;;;;;;;22.12;100.00;98586.25;1657556;85;21023;-73
2022/08/16 00:19:23;;;;;;;13.15;7.97;;;;;;;22.12;100.00;98586.25;1644276;84;20896;-72
2022/08/16 00:21:51;;;;;;;13.25;7.03;;;;;;;22.08;100.00;98588.12;1676382;83;21317;-75
2022/08/16 00:24:18;;;;;;;14.13;7.47;;;;;;;22.01;100.00;98584.64;1680329;83;20900;-74
2022/08/16 00:26:45;;;;;;;11.88;8.10;;;;;;;21.96;100.00;98587.06;1666056;83;20985;-73
2022/08/16 00:29:14;;;;;;;12.75;7.03;;;;;;;21.87;100.00;98586.44;1667595;84;21046;-73
2022/08/16 00:31:44;;;;;;;16.27;8.48;;;;;;;21.74;100.00;98578.13;1682018;83;21106;-73
2022/08/16 00:34:11;;;;;;;9.80;7.37;;;;;;;21.60;100.00;98578.54;1683334;84;22296;-75
2022/08/16 00:36:37;;;;;;;11.45;7.87;;;;;;;21.44;100.00;98573.65;1670474;83;20937;-73
2022/08/16 00:39:04;;;;;;;10.95;7.67;;;;;;;21.33;100.00;98569.22;1682981;83;20945;-74
2022/08/16 00:41:30;;;;;;;9.80;7.33;;;;;;;21.33;100.00;98569.22;1689014;84;21505;-73
2022/08/16 00:43:59;;;;;;;14.40;7.70;;;;;;;21.22;100.00;98570.31;1680463;83;20924;-73
2022/08/16 00:46:33;;;;;;;11.08;8.45;;;;;;;21.11;100.00;98567.84;1652555;84;21319;-74
2022/08/16 00:49:00;;;;;;;19.65;8.55;;;;;;;21.03;100.00;98565.49;1654049;82;20980;-73
2022/08/16 00:51:26;;;;;;;8.30;7.37;;;;;;;20.98;100.00;98565.74;1686320;84;20888;-76
2022/08/16 00:53:53;;;;;;;8.50;7.70;;;;;;;20.93;100.00;98564.62;1666331;83;21092;-76
2022/08/16 00:56:28;;;;;;;11.80;8.20;;;;;;;20.87;100.00;98560.55;1661615;83;21479;-73
2022/08/16 00:58:54;;;;;;;9.98;7.83;;;;;;;20.96;100.00;98555.74;1654109;83;21205;-72
2022/08/16 01:01:21;;;;;;;13.10;7.92;;;;;;;20.88;100.00;98549.88;1667488;84;20965;-76
2022/08/16 01:03:50;;;;;;;8.25;7.40;;;;;;;20.80;100.00;98549.42;1668628;83;20960;-75
2022/08/16 01:06:17;;;;;;;9.93;8.20;;;;;;;20.84;100.00;98552.48;1689046;84;21585;-76
2022/08/16 01:08:47;;;;;;;14.65;8.60;;;;;;;20.89;100.00;98552.81;1666695;83;20912;-74
2022/08/16 01:11:13;;;;;;;17.80;8.88;;;;;;;20.90;100.00;98555.20;1679016;84;21262;-73
2022/08/16 01:13:40;;;;;;;10.90;8.18;;;;;;;20.96;100.00;98552.44;1681238;84;20937;-75
2022/08/16 01:16:19;;;;;;;14.40;8.75;;;;;;;20.94;100.00;98550.63;1668634;83;20980;-73
2022/08/16 01:18:58;;;;;;;9.20;8.15;;;;;;;20.96;100.00;98548.34;1657670;83;20952;-75
2022/08/16 01:21:54;;;;;;;10.70;7.78;;;;;;;20.93;100.00;98555.87;1668233;82;20994;-75
2022/08/16 01:24:29;;;;;;;17.35;8.68;;;;;;;20.92;100.00;98549.39;1676264;82;21260;-74
2022/08/16 01:27:04;;;;;;;12.75;8.50;;;;;;;20.91;100.00;98551.33;1672425;82;20995;-75
2022/08/16 01:29:49;;;;;;;9.53;7.67;;;;;;;20.91;100.00;98551.91;1670009;82;21090;-74
2022/08/16 01:32:16;;;;;;;11.00;7.50;;;;;;;20.91;100.00;98551.91;1688926;84;20947;-74
2022/08/16 01:34:44;;;;;;;10.28;8.63;;;;;;;20.92;100.00;98548.02;1675224;82;21098;-74
2022/08/16 01:37:11;;;;;;;10.78;7.05;;;;;;;20.89;100.00;98548.14;1687937;84;21165;-73
2022/08/16 01:39:39;;;;;;;9.43;7.90;;;;;;;20.92;100.00;98551.56;1669614;82;20951;-73
2022/08/16 01:42:07;;;;;;;15.23;8.53;;;;;;;20.93;100.00;98546.90;1668493;82;21047;-74
2022/08/16 01:44:36;;;;;;;14.68;8.65;;;;;;;20.94;100.00;98552.56;1613442;82;20964;-77
2022/08/16 01:47:03;;;;;;;19.80;9.53;;;;;;;20.93;100.00;98552.35;1680951;82;20963;-75
2022/08/16 01:49:37;;;;;;;13.40;7.95;;;;;;;20.95;100.00;98555.53;1689913;84;21167;-76
2022/08/16 01:52:09;;;;;;;12.53;8.60;;;;;;;21.00;100.00;98551.77;1669337;82;20896;-75
2022/08/16 01:54:38;;;;;;;12.73;8.73;;;;;;;20.99;100.00;98546.86;1672629;82;21524;-74
2022/08/16 01:57:06;;;;;;;12.58;8.48;;;;;;;21.06;100.00;98552.52;1679537;82;21003;-76
2022/08/16 01:59:33;;;;;;;8.98;7.83;;;;;;;21.09;100.00;98560.58;1655202;82;20948;-73
2022/08/16 02:02:01;;;;;;;10.65;7.60;;;;;;;21.11;100.00;98556.36;1665269;82;21133;-74
2022/08/16 02:04:29;;;;;;;;;;;;;;;21.09;100.00;98555.94;1669764;82;20924;-73
2022/08/16 02:06:56;;;;;;;12.30;7.47;;;;;;;21.10;100.00;98550.69;1672099;82;20087;-74
2022/08/16 02:09:24;;;;;;;13.28;8.00;;;;;;;21.10;100.00;98538.41;1640167;85;21068;-76
2022/08/16 02:11:56;;;;;;;9.40;7.55;;;;;;;21.10;100.00;98533.53;1676385;82;21079;-76
2022/08/16 02:14:27;;;;;;;11.97;7.65;;;;;;;21.10;100.00;98533.53;1661399;82;23024;-74
2022/08/16 02:16:58;;;;;;;16.87;8.00;;;;;;;21.11;100.00;98508.61;1659403;82;21505;-75
2022/08/16 02:19:26;;;;;;;8.50;7.47;;;;;;;21.14;100.00;98500.30;1685430;84;21003;-75
2022/08/16 02:21:53;;;;;;;19.17;8.10;;;;;;;21.13;100.00;98490.53;1690061;83;20987;-75
2022/08/16 02:24:21;;;;;;;8.43;7.08;;;;;;;21.18;100.00;98488.34;1661861;83;20864;-74
2022/08/16 02:26:49;;;;;;;16.55;7.72;;;;;;;21.38;100.00;98461.16;1661569;83;21330;-73
2022/08/16 02:29:17;;;;;;;10.25;7.90;;;;;;;21.38;100.00;98461.16;1668271;84;20996;-73
2022/08/16 02:31:46;;;;;;;14.15;8.23;;;;;;;21.37;100.00;98475.38;1672653;83;20999;-73
2022/08/16 02:34:13;;;;;;;8.08;7.12;;;;;;;21.37;100.00;98487.66;1653959;84;20968;-74
2022/08/16 02:36:41;;;;;;;9.15;7.42;;;;;;;21.54;100.00;98489.86;1653926;84;20965;-73
2022/08/16 02:39:09;;;;;;;21.95;7.60;;;;;;;21.51;100.00;98484.53;1659712;83;21267;-73
2022/08/16 02:41:36;;;;;;;;;;;;;;;21.47;100.00;98491.05;1687037;84;20936;-72
2022/08/16 02:44:04;;;;;;;10.75;7.60;;;;;;;21.55;100.00;98494.95;1692166;84;20111;-71
2022/08/16 02:46:32;;;;;;;11.28;7.92;;;;;;;21.66;100.00;98508.88;1670124;83;21514;-73
2022/08/16 02:49:00;;;;;;;11.15;7.72;;;;;;;21.61;100.00;98507.79;1653940;83;21051;-72
2022/08/16 02:51:27;;;;;;;12.37;8.58;;;;;;;21.46;100.00;98512.09;1654255;84;21260;-72
2022/08/16 02:53:53;;;;;;;17.02;8.13;;;;;;;21.35;100.00;98509.63;1664411;83;20956;-72
2022/08/16 02:56:22;;;;;;;17.62;8.58;;;;;;;21.26;100.00;98500.80;1654189;83;20949;-72
2022/08/16 02:58:51;;;;;;;15.70;8.75;;;;;;;21.15;100.00;98499.17;1665474;83;20961;-72
2022/08/16 03:01:22;;;;;;;17.20;9.28;;;;;;;21.05;100.00;98490.14;1663342;84;20937;-71
2022/08/16 03:03:49;;;;;;;15.20;10.38;;;;;;;20.95;100.00;98486.77;1665835;83;21255;-72
2022/08/16 03:06:19;;;;;;;15.35;10.53;;;;;;;20.86;100.00;98482.61;1657930;83;21550;-72
2022/08/16 03:08:45;;;;;;;12.93;10.08;;;;;;;20.79;100.00;98483.20;1657900;83;21056;-72
2022/08/16 03:11:13;;;;;;;19.40;8.18;;;;;;;20.72;100.00;98475.60;1658360;83;20996;-72
2022/08/16 03:13:40;;;;;;;11.73;8.60;;;;;;;20.71;100.00;98477.33;1691307;84;21509;-73
2022/08/16 03:16:09;;;;;;;12.30;8.20;;;;;;;20.71;100.00;98480.84;1654034;84;21254;-72
2022/08/16 03:18:36;;;;;;;9.90;7.97;;;;;;;20.66;100.00;98500.18;1684975;84;20936;-72
2022/08/16 03:21:06;;;;;;;12.60;8.10;;;;;;;20.63;100.00;98484.52;1661978;81;20984;-74
2022/08/16 03:23:34;;;;;;;15.80;9.40;;;;;;;20.74;100.00;98501.95;1679544;82;20975;-73
2022/08/16 03:26:01;;;;;;;13.98;8.95;;;;;;;20.75;100.00;98495.95;1660089;82;21125;-72
2022/08/16 03:28:28;;;;;;;15.60;8.93;;;;;;;20.75;100.00;98500.83;1666114;82;21283;-72
2022/08/16 03:30:55;;;;;;;17.07;9.03;;;;;;;20.75;100.00;98495.95;1673011;82;21580;-72
2022/08/16 03:33:23;;;;;;;13.40;8.77;;;;;;;20.75;100.00;98479.02;1662744;82;20948;-73
2022/08/16 03:35:58;;;;;;;16.95;9.95;;;;;;;20.76;100.00;98479.81;1682478;83;20971;-73
2022/08/16 03:38:36;;;;;;;14.85;10.45;;;;;;;20.76;100.00;98481.17;1690739;83;20875;-73
2022/08/16 03:41:06;;;;;;;20.35;12.58;;;;;;;20.72;100.00;98478.91;1682611;84;21275;-72
2022/08/16 03:43:34;;;;;;;19.62;12.95;;;;;;;20.69;100.00;98469.48;1690978;84;20988;-74
2022/08/16 03:46:02;;;;;;;27.60;15.95;;;;;;;20.69;100.00;98468.13;1674135;82;20971;-72
2022/08/16 03:48:33;;;;;;;28.73;17.42;;;;;;;20.71;100.00;98469.16;1670826;82;20896;-72
2022/08/16 03:51:04;;;;;;;34.45;17.62;;;;;;;20.71;100.00;98464.48;1690354;84;21091;-75
2022/08/16 03:53:33;;;;;;;25.60;16.75;;;;;;;20.75;100.00;98464.60;1674772;82;21885;-74
2022/08/16 03:56:00;;;;;;;;;;;;;;;20.76;100.00;98472.99;1709722;82;20883;-77
2022/08/16 03:58:28;;;;;;;19.57;13.00;;;;;;;20.73;100.00;98470.39;1713921;83;20149;-75
2022/08/16 04:00:55;;;;;;;29.70;13.88;;;;;;;20.71;100.00;98467.79;1709015;83;20986;-73
2022/08/16 04:03:22;;;;;;;20.08;13.58;;;;;;;20.72;100.00;98466.06;1715095;82;21542;-74
2022/08/16 04:05:50;;;;;;;14.23;9.80;;;;;;;20.76;100.00;98461.51;1712202;83;26689;-73
2022/08/16 04:08:20;;;;;;;14.40;8.43;;;;;;;20.79;100.00;98466.84;1695734;82;21129;-75
2022/08/16 04:10:50;;;;;;;15.53;9.15;;;;;;;20.84;100.00;98465.22;1683765;83;21083;-74
2022/08/16 04:13:17;;;;;;;11.63;8.28;;;;;;;20.93;100.00;98469.16;1667249;84;20942;-74
2022/08/16 04:15:44;;;;;;;9.60;7.90;;;;;;;20.96;100.00;98465.73;1675294;84;20860;-74
2022/08/16 04:18:12;;;;;;;13.25;8.23;;;;;;;21.01;100.00;98475.02;1692976;81;21261;-75
2022/08/16 04:20:39;;;;;;;12.70;8.23;;;;;;;21.06;100.00;98473.41;1702485;83;20888;-74
2022/08/16 04:23:07;;;;;;;11.00;7.90;;;;;;;21.14;100.00;98477.11;1709409;83;20887;-74
2022/08/16 04:25:36;;;;;;;10.40;8.03;;;;;;;21.25;100.00;98479.55;1688153;82;20958;-71
2022/08/16 04:28:03;;;;;;;12.17;7.43;;;;;;;21.35;100.00;98476.87;1688834;83;21139;-73
2022/08/16 04:30:31;;;;;;;14.40;7.08;;;;;;;21.39;100.00;98483.25;1693809;82;21792;-70
2022/08/16 04:32:59;;;;;;;13.10;7.33;;;;;;;21.35;100.00;98479.60;1679460;82;21164;-73
2022/08/16 04:35:25;;;;;;;11.22;7.08;;;;;;;21.39;100.00;98485.41;1669850;84;20905;-74
2022/08/16 04:37:53;;;;;;;11.00;6.97;;;;;;;21.45;100.00;98475.59;1689527;83;20970;-75
2022/08/16 04:40:21;;;;;;;12.30;6.62;;;;;;;21.51;100.00;98476.89;1683441;82;20855;-76
2022/08/16 04:42:49;;;;;;;12.73;6.70;;;;;;;21.64;100.00;98478.98;1685185;82;21241;-73
2022/08/16 04:45:16;;;;;;;7.97;6.62;;;;;;;21.75;100.00;98485.48;1681459;83;21235;-71
2022/08/16 04:47:43;;;;;;;11.08;6.47;;;;;;;21.83;100.00;98488.61;1696894;83;20946;-73
2022/08/16 04:50:20;;;;;;;21.87;6.90;;;;;;;21.93;100.00;98488.06;1682627;82;21044;-73
2022/08/16 04:53:01;;;;;;;12.03;6.60;;;;;;;22.05;100.00;98488.53;1669680;82;20993;-72
2022/08/16 04:55:31;;;;;;;8.65;6.70;;;;;;;22.19;100.00;98468.91;1681626;84;21332;-74
2022/08/16 04:57:57;;;;;;;15.35;7.22;;;;;;;22.35;100.00;98482.58;1695659;82;28674;-71
2022/08/16 05:00:32;;;;;;;;;;;;;;;22.45;100.00;98482.79;1689857;82;20922;-72
2022/08/16 05:02:56;;;;;;;9.08;6.03;;;;;;;22.59;100.00;98480.94;1656662;84;20118;-70
2022/08/16 05:05:23;;;;;;;13.45;6.75;;;;;;;22.77;100.00;98482.64;1672260;84;21521;-70
2022/08/16 05:07:50;;;;;;;8.50;6.55;;;;;;;22.90;100.00;98471.75;1671968;84;21322;-69
2022/08/16 05:10:19;;;;;;;11.00;6.28;;;;;;;23.16;100.00;98479.10;1667005;84;21010;-71
2022/08/16 05:12:46;;;;;;;6.50;5.20;;;;;;;23.51;100.00;98482.44;1640010;84;21051;-71
2022/08/16 05:15:13;;;;;;;;;;;;;;;23.76;100.00;98479.34;1669088;84;20961;-72
2022/08/16 05:17:40;;;;;;;10.28;5.83;;;;;;;24.03;100.00;98477.39;1665131;84;20475;-71
2022/08/16 05:20:10;;;;;;;7.67;5.28;;;;;;;24.04;100.00;98484.47;1665633;84;21440;-69
2022/08/16 05:22:38;;;;;;;8.35;5.70;;;;;;;24.08;100.00;98488.06;1679333;82;21497;-76
2022/08/16 05:25:07;;;;;;;12.75;5.97;;;;;;;24.14;100.00;98499.50;1668905;81;21501;-70
2022/08/16 05:27:35;;;;;;;10.05;6.25;;;;;;;24.27;100.00;98506.33;1682626;83;20976;-70
2022/08/16 05:30:05;;;;;;;12.73;6.12;;;;;;;24.35;100.00;98505.84;1660525;82;20963;-74
2022/08/16 05:32:33;;;;;;;7.28;5.60;;;;;;;24.39;100.00;98510.80;1667740;82;21262;-73
2022/08/16 05:35:01;;;;;;;7.37;6.03;;;;;;;24.40;100.00;98512.40;1657664;83;28049;-73
2022/08/16 05:37:27;;;;;;;12.40;5.83;;;;;;;24.52;100.00;98513.57;1673865;83;21509;-73
2022/08/16 05:39:54;;;;;;;10.72;5.40;;;;;;;24.71;100.00;98514.57;1683061;84;20948;-72
2022/08/16 05:42:21;;;;;;;8.78;6.20;;;;;;;24.72;100.00;98517.51;1674298;82;20881;-73
2022/08/16 05:44:48;;;;;;;8.43;5.50;;;;;;;24.73;100.00;98525.38;1655981;82;21652;-71
2022/08/16 05:47:15;;;;;;;8.68;5.90;;;;;;;24.70;100.00;98521.23;1657525;82;21470;-71
2022/08/16 05:49:41;;;;;;;11.22;5.70;;;;;;;24.69;100.00;98538.84;1677052;82;20939;-73
2022/08/16 05:52:10;;;;;;;11.30;6.08;;;;;;;24.78;100.00;98542.88;1659828;82;21003;-74
2022/08/16 05:54:37;;;;;;;9.05;5.83;;;;;;;24.96;100.00;98538.19;1684591;83;20892;-72
2022/08/16 05:57:04;;;;;;;8.38;5.65;;;;;;;25.06;100.00;98543.59;1683548;84;21269;-75
2022/08/16 05:59:31;;;;;;;14.38;6.05;;;;;;;25.32;100.00;98544.89;1685781;84;21019;-73
2022/08/16 06:01:58;;;;;;;15.68;6.25;;;;;;;25.47;100.00;98546.41;1673657;82;21093;-73
2022/08/16 06:04:30;;;;;;;10.68;5.60;;;;;;;25.38;100.00;98542.02;1681108;82;20891;-75
2022/08/16 06:06:57;;;;;;;9.97;6.37;;;;;;;25.43;100.00;98548.55;1672860;82;21015;-74
2022/08/16 06:09:25;;;;;;;9.45;5.45;;;;;;;25.48;100.00;98547.98;1673816;82;21223;-71
2022/08/16 06:11:52;;;;;;;10.37;6.17;;;;;;;25.68;100.00;98545.83;1670399;82;21545;-71
2022/08/16 06:14:18;;;;;;;6.62;5.70;;;;;;;25.87;100.00;98549.17;1682222;84;21509;-71
2022/08/16 06:16:47;;;;;;;11.00;6.05;;;;;;;25.80;100.00;98531.21;1657519;82;20936;-76
2022/08/16 06:19:14;;;;;;;12.58;6.17;;;;;;;25.55;100.00;98546.67;1670297;82;21120;-71
2022/08/16 06:21:42;;;;;;;13.13;5.92;;;;;;;25.28;100.00;98543.27;1676987;84;21632;-73
2022/08/16 06:24:10;;;;;;;11.73;6.10;;;;;;;25.22;100.00;98544.98;1661469;84;20936;-72
2022/08/16 06:26:37;;;;;;;15.23;5.83;;;;;;;25.40;100.00;98543.78;1674033;84;26422;-71
2022/08/16 06:29:05;;;;;;;11.75;5.90;;;;;;;25.27;100.00;98555.44;1664750;84;20932;-70
2022/08/16 06:31:34;;;;;;;15.13;6.30;;;;;;;25.36;100.00;98555.34;1666436;84;21000;-71
2022/08/16 06:34:01;;;;;;;11.57;6.58;;;;;;;25.76;100.00;98563.36;1657988;84;21328;-71
2022/08/16 06:36:30;;;;;;;10.93;6.25;;;;;;;25.92;100.00;98552.16;1665279;84;21455;-73
2022/08/16 06:38:59;;;;;;;9.55;6.33;;;;;;;25.93;100.00;98557.84;1666310;84;21016;-72
2022/08/16 06:41:33;;;;;;;14.30;6.42;;;;;;;25.87;98.16;98560.72;1672958;84;21063;-70
2022/08/16 06:44:03;;;;;;;12.85;6.47;;;;;;;25.70;100.00;98548.41;1664288;84;21483;-69
2022/08/16 06:46:35;;;;;;;13.25;6.72;;;;;;;25.64;100.00;98555.41;1665755;84;21801;-68
2022/08/16 06:49:07;;;;;;;12.45;5.97;;;;;;;25.89;100.00;98555.64;1663875;84;21067;-73
2022/08/16 06:51:35;;;;;;;11.93;6.67;;;;;;;26.04;100.00;98535.92;1683337;83;20951;-72
2022/08/16 06:54:04;;;;;;;12.88;6.62;;;;;;;26.06;97.89;98545.36;1664726;83;21643;-70
2022/08/16 06:56:30;;;;;;;8.55;6.80;;;;;;;26.20;98.31;98524.65;1665587;84;20972;-76
2022/08/16 06:58:59;;;;;;;13.40;6.97;;;;;;;26.75;97.03;98519.64;1672758;82;21230;-72
2022/08/16 07:01:28;;;;;;;8.60;6.67;;;;;;;27.16;93.45;98520.95;1681515;83;20959;-70
2022/08/16 07:03:55;;;;;;;14.70;6.72;;;;;;;27.38;81.92;98529.30;1672433;84;20988;-70
2022/08/16 07:06:23;;;;;;;10.45;6.40;;;;;;;27.23;86.42;98527.70;1669174;84;21047;-69
2022/08/16 07:08:50;;;;;;;12.05;6.50;;;;;;;26.99;83.70;98498.89;1656231;84;21689;-70
2022/08/16 07:11:19;;;;;;;13.93;7.40;;;;;;;27.15;85.19;98536.51;1666154;84;21290;-72
2022/08/16 07:13:48;;;;;;;16.37;6.50;;;;;;;27.23;85.87;98540.88;1676627;84;20940;-74
2022/08/16 07:16:15;;;;;;;16.87;7.35;;;;;;;27.25;84.64;98544.03;1671665;84;21036;-69
2022/08/16 07:18:44;;;;;;;11.60;6.92;;;;;;;27.02;87.44;98547.10;1671786;83;21059;-70
2022/08/16 07:21:12;;;;;;;13.30;7.03;;;;;;;27.04;90.69;98552.98;1659548;84;20901;-74
2022/08/16 07:23:44;;;;;;;10.55;6.60;;;;;;;27.13;90.87;98554.79;1684790;83;21251;-70
2022/08/16 07:26:14;;;;;;;13.62;7.65;;;;;;;27.23;84.37;98568.42;1657875;84;20907;-73
2022/08/16 07:28:41;;;;;;;13.00;7.03;;;;;;;27.21;84.20;98563.11;1639377;82;21479;-73
2022/08/16 07:31:08;;;;;;;8.87;6.23;;;;;;;26.83;86.88;98572.98;1657199;82;20948;-70
2022/08/16 07:33:38;;;;;;;12.23;6.83;;;;;;;26.72;91.40;98574.28;1682648;82;20908;-69
2022/08/16 07:36:07;;;;;;;11.08;7.20;;;;;;;26.52;93.84;98586.14;1691299;82;21234;-72
2022/08/16 07:38:35;;;;;;;11.90;7.22;;;;;;;26.30;97.32;98603.09;1655116;83;21127;-70
2022/08/16 07:41:04;;;;;;;10.23;7.42;;;;;;;26.10;95.22;98583.89;1677221;84;20951;-70
2022/08/16 07:43:32;;;;;;;16.02;8.80;;;;;;;26.01;97.66;98605.42;1661904;84;21440;-72
2022/08/16 07:46:01;;;;;;;10.80;7.33;;;;;;;26.01;99.12;98607.58;1660103;84;20944;-72
2022/08/16 07:48:27;;;;;;;11.47;7.20;;;;;;;25.79;98.46;98605.20;1675944;84;21926;-70
2022/08/16 07:50:55;;;;;;;;;;;;;;;25.54;99.03;98604.17;1677088;83;20968;-71
2022/08/16 07:53:23;;;;;;;17.50;7.08;;;;;;;25.39;100.00;98615.00;1687609;82;20107;-70
2022/08/16 07:55:50;;;;;;;18.20;7.95;;;;;;;25.19;99.71;98604.78;1700977;83;20938;-73
2022/08/16 07:58:19;;;;;;;13.48;7.83;;;;;;;25.27;98.00;98592.51;1702280;81;21482;-71
2022/08/16 08:00:46;;;;;;;15.70;8.05;;;;;;;25.55;95.98;98629.91;1663839;84;21139;-73
2022/08/16 08:03:13;;;;;;;17.35;7.80;;;;;;;25.72;94.46;98631.83;1665963;84;21019;-71
2022/08/16 08:05:40;;;;;;;9.00;7.78;;;;;;;26.04;91.92;98633.52;1696176;84;20994;-70
2022/08/16 08:08:08;;;;;;;15.05;8.45;;;;;;;26.20;88.53;98618.16;1675996;82;20930;-72
2022/08/16 08:10:37;;;;;;;16.73;8.05;;;;;;;26.19;89.58;98614.62;1702924;84;21437;-72
2022/08/16 08:13:04;;;;;;;14.78;8.28;;;;;;;26.21;89.80;98616.97;1675793;82;21166;-71
2022/08/16 08:15:31;;;;;;;13.15;7.78;;;;;;;26.14;93.78;98623.22;1667987;82;20868;-70
2022/08/16 08:18:01;;;;;;;11.55;7.35;;;;;;;26.33;91.81;98611.76;1671123;82;21015;-71
2022/08/16 08:20:29;;;;;;;23.05;8.90;;;;;;;26.30;90.74;98593.47;1665342;82;20965;-70
2022/08/16 08:22:58;;;;;;;15.08;7.85;;;;;;;26.08;97.23;98617.86;1655919;84;21530;-69
2022/08/16 08:25:26;;;;;;;14.58;8.15;;;;;;;26.16;100.00;98611.23;1655940;84;21143;-71
2022/08/16 08:27:54;;;;;;;15.93;8.20;;;;;;;26.13;100.00;98614.75;1655747;84;37795;-72
2022/08/16 08:30:22;;;;;;;16.05;8.80;;;;;;;25.90;100.00;98617.71;1659485;84;21511;-73
2022/08/16 08:32:50;;;;;;;19.75;8.80;;;;;;;25.56;100.00;98609.50;1663620;84;21131;-77
2022/08/16 08:35:18;;;;;;;15.28;8.68;;;;;;;25.65;100.00;98611.95;1666036;84;21004;-71
2022/08/16 08:37:44;;;;;;;22.07;8.43;;;;;;;25.79;100.00;98616.78;1656167;84;21172;-73
2022/08/16 08:40:13;;;;;;;17.98;8.63;;;;;;;25.80;100.00;98606.01;1658111;84;21522;-71
2022/08/16 08:42:43;;;;;;;17.02;6.95;;;;;;;25.90;100.00;98621.83;1663259;84;20944;-70
2022/08/16 08:45:12;;;;;;;17.77;8.55;;;;;;;25.91;100.00;98621.24;1665567;84;21047;-69
2022/08/16 08:47:39;;;;;;;14.18;8.63;;;;;;;25.96;100.00;98619.52;1659969;84;21067;-67
2022/08/16 08:50:09;;;;;;;19.32;8.25;;;;;;;25.92;100.00;98617.31;1655493;83;21270;-69
2022/08/16 08:52:36;;;;;;;15.18;8.53;;;;;;;25.84;100.00;98619.96;1659352;84;20893;-68
2022/08/16 08:55:07;;;;;;;11.05;8.30;;;;;;;25.91;100.00;98614.37;1662410;84;20953;-67
2022/08/16 08:57:34;;;;;;;23.50;9.70;;;;;;;26.01;100.00;98615.83;1679238;84;21048;-65
2022/08/16 09:00:18;;;;;;;11.70;8.63;;;;;;;26.18;100.00;98612.23;1656187;84;20893;-68
2022/08/16 09:02:44;;;;;;;17.82;9.35;;;;;;;26.30;100.00;98626.47;1671890;84;21783;-69
2022/08/16 09:05:13;;;;;;;12.78;8.73;;;;;;;26.46;100.00;98622.67;1689080;84;20900;-67
2022/08/16 09:07:43;;;;;;;15.70;8.70;;;;;;;26.47;100.00;98621.48;1660216;84;21106;-69
2022/08/16 09:10:10;;;;;;;19.07;9.53;;;;;;;26.60;100.00;98610.39;1656040;84;21099;-69
2022/08/16 09:12:38;;;;;;;12.63;9.18;;;;;;;26.38;100.00;98617.68;1671537;84;21683;-69
2022/08/16 09:15:11;;;;;;;18.07;9.65;;;;;;;26.45;100.00;98614.98;1665885;84;21892;-70
2022/08/16 09:17:38;;;;;;;18.87;9.08;;;;;;;26.56;100.00;98618.44;1677683;84;20950;-70
2022/08/16 09:20:07;;;;;;;12.03;8.55;;;;;;;26.63;100.00;98621.21;1683631;84;21499;-69
2022/08/16 09:22:35;;;;;;;18.95;9.63;;;;;;;26.61;100.00;98614.73;1671685;83;20975;-72
2022/08/16 09:25:03;;;;;;;17.20;9.73;;;;;;;26.77;100.00;98609.51;1689106;84;21007;-70
2022/08/16 09:27:30;;;;;;;18.80;10.18;;;;;;;26.82;100.00;98615.42;1666575;82;21158;-66
2022/08/16 09:29:57;;;;;;;21.57;9.93;;;;;;;26.66;100.00;98622.63;1683092;84;20928;-71
2022/08/16 09:32:24;;;;;;;15.95;9.53;;;;;;;26.72;100.00;98621.67;1658378;82;21054;-68
2022/08/16 09:34:51;;;;;;;15.43;9.57;;;;;;;26.83;100.00;98612.89;1660931;82;20987;-70
2022/08/16 09:37:18;;;;;;;19.17;9.70;;;;;;;26.72;100.00;98609.28;1674985;83;20964;-69
2022/08/16 09:39:44;;;;;;;20.12;10.75;;;;;;;26.64;100.00;98617.30;1676677;82;21327;-70
2022/08/16 09:42:14;;;;;;;16.57;9.30;;;;;;;26.74;100.00;98609.69;1684863;83;20947;-69
2022/08/16 09:44:41;;;;;;;17.73;9.88;;;;;;;26.77;100.00;98599.88;1701463;83;20968;-72
2022/08/16 09:47:08;;;;;;;15.25;9.03;;;;;;;26.85;100.00;98600.09;1709166;83;20941;-69
2022/08/16 09:49:35;;;;;;;16.73;9.85;;;;;;;26.91;100.00;98598.57;1699428;83;21552;-70
2022/08/16 09:52:03;;;;;;;21.95;9.83;;;;;;;26.77;100.00;98613.64;1701750;84;21164;-71
2022/08/16 09:54:30;;;;;;;15.08;10.20;;;;;;;26.66;100.00;98619.88;1688531;82;20919;-73
2022/08/16 09:56:57;;;;;;;15.78;9.08;;;;;;;26.50;100.00;98615.22;1706814;82;21484;-69
2022/08/16 09:59:24;;;;;;;18.75;9.40;;;;;;;26.43;100.00;98615.16;1712351;82;20919;-69
2022/08/16 10:01:52;;;;;;;13.32;8.55;;;;;;;26.16;100.00;98611.83;1698424;83;20885;-68
2022/08/16 10:04:19;;;;;;;14.40;8.25;;;;;;;25.88;100.00;98620.83;1694988;82;21243;-71
2022/08/16 10:06:46;;;;;;;15.93;9.03;;;;;;;25.68;100.00;98613.94;1691872;82;20886;-70
2022/08/16 10:09:14;;;;;;;11.63;8.60;;;;;;;25.48;100.00;98617.47;1673157;83;21025;-66
2022/08/16 10:14:31;;;;;;;12.37;7.40;;;;;;;25.05;100.00;98625.75;1698037;82;21469;-69
2022/08/16 10:17:00;;;;;;;11.75;7.00;;;;;;;25.05;100.00;98623.01;1674130;84;21484;-72
2022/08/16 10:19:27;;;;;;;14.18;7.55;;;;;;;25.01;100.00;98623.77;1665600;84;21010;-71
2022/08/16 10:21:56;;;;;;;14.87;7.50;;;;;;;24.84;100.00;98621.55;1686360;84;21008;-70
2022/08/16 10:24:23;;;;;;;12.68;6.53;;;;;;;24.81;100.00;98630.53;1670491;84;20948;-72
2022/08/16 10:26:51;;;;;;;9.70;5.92;;;;;;;24.88;100.00;98628.47;1654842;84;21471;-70
2022/08/16 10:29:18;;;;;;;9.88;5.92;;;;;;;24.84;100.00;98630.37;1677488;84;21236;-71
2022/08/16 10:31:45;;;;;;;7.87;6.30;;;;;;;24.67;100.00;98614.68;1668403;84;21036;-70
2022/08/16 10:34:12;;;;;;;9.53;5.85;;;;;;;24.54;100.00;98605.85;1661614;85;21451;-72
2022/08/16 10:36:39;;;;;;;9.53;5.97;;;;;;;24.38;100.00;98628.52;1673065;85;20941;-71
2022/08/16 10:39:06;;;;;;;15.10;5.80;;;;;;;24.27;100.00;98626.97;1684396;85;22371;-75
2022/08/16 10:41:34;;;;;;;7.37;5.53;;;;;;;24.33;100.00;98636.48;1659895;84;25099;-75
2022/08/16 10:44:01;;;;;;;9.30;5.92;;;;;;;24.35;100.00;98651.98;1672097;84;21556;-73
2022/08/16 10:46:29;;;;;;;7.85;5.37;;;;;;;24.48;100.00;98652.60;1666022;84;20917;-73
2022/08/16 10:48:56;;;;;;;11.10;5.60;;;;;;;24.57;100.00;98660.00;1669848;84;21028;-72
2022/08/16 10:51:23;;;;;;;10.25;5.35;;;;;;;24.63;100.00;98661.84;1679525;84;21556;-70
2022/08/16 10:53:50;;;;;;;9.38;4.80;;;;;;;24.65;100.00;98674.61;1685416;84;21314;-69
2022/08/16 10:56:17;;;;;;;8.55;4.80;;;;;;;24.69;100.00;98671.91;1667141;83;20901;-72
2022/08/16 10:58:44;;;;;;;6.97;4.42;;;;;;;24.61;100.00;98655.92;1672524;84;20988;-69
2022/08/16 11:01:11;;;;;;;7.78;4.42;;;;;;;24.60;100.00;98662.00;1661304;84;20968;-68
2022/08/16 11:03:38;;;;;;;5.25;4.25;;;;;;;24.75;100.00;98671.23;1668365;84;20925;-72
2022/08/16 11:06:06;;;;;;;9.63;4.73;;;;;;;25.01;100.00;98647.09;1667316;84;21729;-70
2022/08/16 11:08:35;;;;;;;6.22;3.95;;;;;;;25.12;100.00;98670.55;1659894;83;21035;-71
2022/08/16 11:11:05;;;;;;;7.10;4.17;;;;;;;25.17;100.00;98669.47;1659654;84;21001;-69
2022/08/16 11:13:31;;;;;;;5.80;3.62;;;;;;;25.17;100.00;98674.97;1669320;84;20903;-73
2022/08/16 11:15:59;;;;;;;4.95;3.95;;;;;;;25.14;100.00;98679.22;1673173;84;21055;-72
2022/08/16 11:18:30;;;;;;;10.50;5.15;;;;;;;25.17;100.00;98683.98;1669597;84;21884;-71
2022/08/16 11:20:57;;;;;;;9.50;4.85;;;;;;;25.29;100.00;98676.69;1672556;81;21067;-72
2022/08/16 11:23:26;;;;;;;8.98;4.33;;;;;;;25.38;100.00;98671.67;1657606;82;20924;-71
2022/08/16 11:25:53;;;;;;;7.45;4.83;;;;;;;25.24;100.00;98673.69;1664738;82;21047;-71
2022/08/16 11:28:21;;;;;;;11.68;4.78;;;;;;;25.18;100.00;98676.53;1665367;81;21055;-72
2022/08/16 11:30:48;;;;;;;7.12;4.83;;;;;;;25.36;100.00;98678.94;1674942;82;25218;-70